• Join FlightAware (Why Join?)
  • Login
  • US Flag 
02:22AM EST


 

Airport Tracker/Info


-or-


 

Live Flight TrackerFlight Track Log ✈ EJA947 ✈ 16-Apr-2013 ✈ KLGA - KPBI

Flight Track Log - Related Links

Times and Time Zones

All times are in EDT time to prevent confusion due to time zone crossing. See the EJA947 flight status page for this flight to view local times or setup timezone preferences in your user account.

Time Position Orientation Groundspeed Altitude Reporting Facility
EDT Latitude Longitude Course Direction KTS MPH feet Rate Location/Type
10:54PM 40.7667 -73.8500 108° East 183 211 1,300  Level New York TRACON
10:55PM 40.7500 -73.7833 108° East 271 312 4,300 3,000 Climbing New York TRACON
10:56PM 40.8000 -73.7667 14° North 260 299 7,300 3,060 Climbing New York TRACON
10:57PM 40.8000 -73.8667 270° West 263 303 10,500 2,160 Climbing New York TRACON
10:58PM 40.7333 -73.9333 217° Southwest 331 381 11,700 720 Climbing New York TRACON
10:59PM 40.6500 -74.0000 211° Southwest 349 402 12,000 120 Climbing New York TRACON
11:00PM 40.5500 -74.0333 194° South 379 436 12,000  Level New York TRACON
11:01PM 40.4500 -74.0833 201° Southwest 402 463 12,100 840 Climbing New York TRACON
11:02PM 40.3581 -74.1158 195° South 380 437 13,600 1,800 Climbing New York Center
11:04PM 40.1492 -74.1964 196° South 381 438 17,300 1,680 Climbing Washington Center
11:05PM 40.0456 -74.2392 198° South 391 450 18,700 1,500 Climbing Washington Center
11:06PM 39.9569 -74.3303 218° Southwest 391 450 20,300 1,680 Climbing Washington Center
11:07PM 39.8744 -74.4289 223° Southwest 396 456 22,100 1,500 Climbing Washington Center
11:08PM 39.8003 -74.5167 222° Southwest 407 468 23,400 1,560 Climbing Washington Center
11:09PM 39.7139 -74.6231 223° Southwest 417 480 25,300 1,800 Climbing Washington Center
11:10PM 39.6250 -74.7294 223° Southwest 423 487 27,000 1,380 Climbing Washington Center
11:11PM 39.5297 -74.8381 221° Southwest 436 502 28,200 1,380 Climbing Washington Center
11:12PM 39.4389 -74.9467 223° Southwest 450 518 29,800 1,800 Climbing Washington Center
11:13PM 39.3436 -75.0603 223° Southwest 456 525 31,800 2,040 Climbing Washington Center
11:14PM 39.2314 -75.1414 209° Southwest 466 536 33,900 2,400 Climbing Washington Center
11:15PM 39.1106 -75.1956 199° South 466 536 36,700 1,980 Climbing Washington Center
11:16PM 38.9858 -75.2417 196° South 461 531 37,900 1,440 Climbing Washington Center
11:17PM 38.8608 -75.2983 199° South 467 537 39,600 1,860 Climbing Washington Center
11:18PM 38.7442 -75.3467 198° South 467 537 41,600 1,320 Climbing Washington Center
11:19PM 38.6256 -75.4056 201° Southwest 462 532 42,300 660 Climbing Washington Center
11:20PM 38.5044 -75.4592 199° South 462 532 43,000 300 Climbing Washington Center
11:21PM 38.3794 -75.5150 199° South 468 539 43,000  Level Washington Center
11:22PM 38.2503 -75.5706 199° South 475 547 43,000  Level Washington Center
11:23PM 38.1231 -75.6314 201° Southwest 489 563 43,000  Level Washington Center
11:24PM 37.9833 -75.6997 201° Southwest 489 563 43,000  Level Washington Center
11:25PM 37.8497 -75.7600 200° South 494 568 43,000  Level Washington Center
11:26PM 37.7161 -75.8175 199° South 501 577 43,000  Level Washington Center
11:27PM 37.5889 -75.8828 202° Southwest 506 582 43,000  Level Washington Center
11:28PM 37.4572 -75.9478 201° Southwest 511 588 43,000  Level Washington Center
11:29PM 37.3297 -76.0175 204° Southwest 511 588 43,000  Level Washington Center
11:30PM 37.2022 -76.0872 204° Southwest 511 588 43,000  Level Washington Center
11:31PM 37.0978 -76.1439 203° Southwest 511 588 43,000  Level Washington Center
11:32PM 36.9494 -76.2131 200° South 516 594 43,000  Level Washington Center
11:33PM 36.8217 -76.2819 203° Southwest 510 587 43,000  Level Washington Center
11:34PM 36.6939 -76.3586 206° Southwest 510 587 43,000  Level Washington Center
11:35PM 36.5661 -76.4247 203° Southwest 505 581 43,000  Level Washington Center
11:36PM 36.4386 -76.4931 203° Southwest 500 575 43,000  Level Washington Center
11:37PM 36.3067 -76.5586 202° Southwest 505 581 43,000  Level Washington Center
11:38PM 36.1767 -76.6264 203° Southwest 505 581 43,000  Level Washington Center
11:39PM 36.0489 -76.6917 202° Southwest 505 581 43,000  Level Washington Center
11:40PM 35.9186 -76.7617 204° Southwest 505 581 43,000  Level Washington Center
11:41PM 35.7908 -76.8289 203° Southwest 499 574 43,000  Level Washington Center
11:42PM 35.6586 -76.8958 202° Southwest 499 574 43,000  Level Washington Center
11:43PM 35.5306 -76.9625 203° Southwest 499 574 43,000  Level Washington Center
11:44PM 35.3983 -77.0292 202° Southwest 504 580 43,000  Level Washington Center
11:45PM 35.2661 -77.0981 203° Southwest 510 587 43,000  Level Washington Center
11:46PM 35.1358 -77.1667 203° Southwest 510 587 43,000  Level Washington Center
11:47PM 35.0014 -77.2350 203° Southwest 515 593 43,000  Level Washington Center
11:48PM 34.8711 -77.2983 202° Southwest 515 593 43,000  Level Washington Center
11:49PM 34.7303 -77.3736 204° Southwest 515 593 43,000  Level Washington Center
11:50PM 34.5978 -77.4414 203° Southwest 515 593 43,000  Level Washington Center
11:51PM 34.4614 -77.4889 196° South 520 598 43,000  Level Washington Center
11:52PM 34.2431 -77.5600 195° South 536 617 43,000  Level Jacksonville Center
11:53PM 34.0992 -77.6064 195° South 536 617 43,000  Level Jacksonville Center
11:54PM 33.9569 -77.6525 195° South 525 604 43,000  Level Jacksonville Center
11:55PM 33.8192 -77.6983 195° South 529 609 43,000  Level Jacksonville Center
11:56PM 33.6792 -77.7414 194° South 523 602 43,000  Level Jacksonville Center
11:57PM 33.5514 -77.7839 195° South 528 608 43,000  Level Jacksonville Center
11:58PM 33.4094 -77.8294 195° South 528 608 43,000  Level Jacksonville Center
11:59PM 33.2692 -77.8744 195° South 528 608 43,000  Level Jacksonville Center
12:00AM 33.1311 -77.9194 195° South 528 608 43,000  Level Jacksonville Center
12:01AM 32.9889 -77.9644 195° South 528 608 43,000  Level Jacksonville Center
12:02AM 32.8467 -78.0094 195° South 528 608 43,000  Level Jacksonville Center
12:03AM 32.7025 -78.0567 195° South 528 608 43,000  Level Jacksonville Center
12:04AM 32.5619 -78.0961 193° South 528 608 43,000  Level Jacksonville Center
12:05AM 32.4219 -78.1456 197° South 528 608 43,000  Level Jacksonville Center
12:06AM 32.2797 -78.1897 195° South 528 608 43,000  Level Jacksonville Center
12:07AM 32.1369 -78.2289 193° South 528 608 43,000  Level Jacksonville Center
12:08AM 31.9969 -78.2778 196° South 528 608 43,000  Level Jacksonville Center
12:09AM 31.8544 -78.3214 195° South 528 608 43,000  Level Jacksonville Center
12:10AM 31.7100 -78.3703 196° South 528 608 43,000  Level Jacksonville Center
12:11AM 31.5694 -78.4111 194° South 528 608 43,000  Level Jacksonville Center
12:12AM 31.4269 -78.4519 194° South 528 608 43,000  Level Jacksonville Center
12:13AM 31.2844 -78.4978 195° South 528 608 43,000  Level Jacksonville Center
12:14AM 31.1294 -78.5436 194° South 528 608 43,000  Level Jacksonville Center
12:15AM 30.9831 -78.5917 196° South 527 606 43,000  Level Jacksonville Center
12:16AM 30.8403 -78.6344 194° South 534 615 43,000  Level Jacksonville Center
12:17AM 30.6917 -78.6775 194° South 539 620 43,000  Level Jacksonville Center
12:18AM 30.5494 -78.7242 196° South 543 625 43,000  Level Miami Center
12:19AM 30.4175 -78.7725 198° South 533 613 43,000  Level Miami Center
12:20AM 30.2750 -78.8253 198° South 525 604 43,000  Level Miami Center
12:21AM 30.1328 -78.8728 196° South 537 618 43,000  Level Miami Center
12:22AM 29.9944 -78.9303 200° South 537 618 43,000  Level Miami Center
12:23AM 29.8519 -78.9778 196° South 531 611 43,000  Level Miami Center
12:24AM 29.7114 -79.0250 196° South 531 611 43,000  Level Miami Center
12:25AM 29.5731 -79.0747 197° South 525 604 43,000  Level Miami Center
12:26AM 29.4306 -79.1194 195° South 525 604 43,000  Level Miami Center
12:27AM 29.2919 -79.1667 197° South 525 604 43,000  Level Miami Center
12:28AM 29.1536 -79.2161 197° South 525 604 43,000  Level Miami Center
12:29AM 29.0131 -79.2581 195° South 519 597 43,000 -360 Level Miami Center
12:30AM 28.8744 -79.3072 197° South 519 597 42,300 -1,800 Descending Miami Center
12:31AM 28.7339 -79.3517 195° South 525 604 39,500 -2,820 Descending Miami Center
12:32AM 28.5956 -79.3958 196° South 525 604 36,700 -2,820 Descending Miami Center
12:33AM 28.4569 -79.4422 196° South 517 595 33,900 -2,820 Descending Miami Center
12:34AM 28.3142 -79.4908 197° South 501 577 31,100 -2,940 Descending Miami Center
12:35AM 28.1628 -79.5392 196° South 523 602 28,100 -2,880 Descending Miami Center
12:36AM 28.0264 -79.5853 197° South 533 613 25,400 -2,400 Descending Miami Center
12:37AM 27.9108 -79.6225 196° South 515 593 23,400 -2,400 Descending Miami Center
12:38AM 27.7847 -79.6639 196° South 460 529 20,700 -2,520 Descending Miami Center
12:39AM 27.6775 -79.6989 196° South 438 504 18,400 -2,280 Descending Miami Center
12:40AM 27.5619 -79.7358 196° South 443 510 16,200 -2,340 Descending Miami Center
12:41AM 27.4444 -79.7750 196° South 420 483 13,800 -2,160 Descending Miami Center
12:42AM 27.3497 -79.8078 197° South 378 435 11,900 -1,800 Descending Miami Center
12:43AM 27.2614 -79.8336 195° South 345 397 10,300 -1,620 Descending Miami Center
12:44AM 27.1919 -79.8575 197° South 309 356 8,700 -1,320 Descending Miami Center
12:45AM 27.1183 -79.8881 200° South 296 341 7,700 -1,200 Descending Miami Center
12:46AM 27.0381 -79.9328 206° Southwest 289 333 6,400 -1,260 Descending Miami Center
12:47AM 26.9683 -79.9750 208° Southwest 289 333 5,200 -1,200 Descending Miami Center
12:48AM 26.9067 -80.0247 216° Southwest 289 333 4,100 -1,140 Descending Miami Center
12:49AM 26.8514 -80.0697 216° Southwest 284 327 3,000 -600 Descending Miami Center
12:50AM 26.8061 -80.1336 232° Southwest 271 312 3,000  Level Miami Center
12:52AM 26.6832 -80.0956 263° West  Level Estimated
12:59AM 26.6832 -80.0956 110° East  Level Estimated
01:00AM 26.6832 -80.0956 110° East  Level Estimated
01:01AM 26.6832 -80.0956 110° East  Level Estimated
01:02AM 26.6832 -80.0956 110° East  Level Estimated
01:03AM 26.6832 -80.0956 110° East  Level Estimated
01:04AM 26.6832 -80.0956 110° East  Level Estimated
01:05AM 26.6832 -80.0956 110° East  Level Estimated
01:06AM 26.6832 -80.0956 110° East  Level Estimated